KCCB/CCB METAR and TAF weather

Enter ICAO airport designator
Station Type Date Time Source
KCCB METAR 2022/01/26 14:15 UTC NOAA

KCCB 261415Z AUTO 32006KT 9SM CLR 10/M05 A3009 RMK AO2


Station Type Date Time Source
KCCB Decoded METAR 2022/01/26 14:15 UTC NOAA

Station name not available
Jan 26, 2022 - 09:15 AM EST / 2022.01.26 1415 UTC
Wind: from the NW (320 degrees) at 7 MPH (6 KT):0
Visibility: 9 mile(s):0
Sky conditions: clear
Temperature: 50 F (10 C)
Dew Point: 23 F (-5 C)
Relative Humidity: 34%
Pressure (altimeter): 30.09 in. Hg (1018 hPa)
ob: KCCB 261415Z AUTO 32006KT 9SM CLR 10/M05 A3009 RMK AO2
cycle: 14

Station Type Date Time Source
KCCB TAF UTC NOAA

Error!

Example: see airport list